KOLM METAR and TAF | Updated Today

KOLM METAR

Olympia Regional Airport

Observation time: 16 min. ago

KOLM 200754Z AUTO 00000KT 10SM CLR 06/04 A3028 RMK AO2 SLP255 T00560044 401500056

Need help? Read our tutorial on how to read METARs or read the parsed version below.

Olympia Regional Airport (KOLM) METAR

  • Weather conditions on Fri, 20 May 2022 07:54:00 +0000 (16 min. ago):
  • Present conditions: Dry
  • Clouds: Clear skies
  • Visibility: 16093 meters
  • Wind: Calm
  • Temperature: 6 celsius
  • Dew point: 4 celsius
  • Pressure: 30.28 inHg
  • Remarks: AO2 SLP255 T00560044 401500056


Useful to know...

KOLM TAF

Olympia Regional Airport

KOLM 200528Z 2006/2106 26008KT P6SM SCT080 FM200700 19002KT P6SM SCT025 BKN040 FM201300 VRB02KT P6SM SCT025 BKN040
Observation time: 2:42 hr. ago
Need help? Read our tutorial on how to read TAFs or read the parsed version below.

Parsed version of TAF for Olympia Regional Airport (KOLM)

  • From 20 May at 06:00 UTC, to day 21 of the month at 06:00 UTC
  • Clouds: Scattered at 2438 meters
  • Wind: 260 degrees at 8
  • From day 20 of the month at 07:00 UTC
  • Clouds: Scattered at 762 meters; broken sky at 1219 meters
  • Wind: 190 degrees at 2
  • From day 20 of the month at 13:00 UTC
  • Clouds: Scattered at 762 meters; broken sky at 1219 meters
  • Wind: Variable at 2